<?xml version="1.0" encoding="UTF-8"?>
<gpx version="1.0" creator="Gaggle https://github.com/geeksville/Gaggle" xmlns:xsi="http://www.w3.org/2001/XMLSchema-instance" xmlns="http://www.topografix.com/GPX/1/0" xsi:schemaLocation="http://www.topografix.com/GPX/1/0 http://www.topografix.com/GPX/1/0/gpx.xsd">
<trk>
	<name>Jorgev's flight</name>
	<desc>
	Pilot name:	Jorgev
	Pilot ID:	
	Glider type:	Rush 2
	</desc>
	<trkseg>
		<trkpt lat="43.019811" lon="-5.967237">
			<ele>1889.000000</ele>
		<time>2015-11-29T02:18:14Z</time>
		</trkpt>

		<trkpt lat="43.020089" lon="-5.967267">
			<ele>1856.000000</ele>
		<time>2015-11-29T02:18:41Z</time>
		</trkpt>

		<trkpt lat="43.020030" lon="-5.967287">
			<ele>1864.000000</ele>
		<time>2015-11-29T02:19:11Z</time>
		</trkpt>

		<trkpt lat="43.020002" lon="-5.967294">
			<ele>1868.000000</ele>
		<time>2015-11-29T02:19:14Z</time>
		</trkpt>

		<trkpt lat="43.020011" lon="-5.967333">
			<ele>1869.000000</ele>
		<time>2015-11-29T02:21:03Z</time>
		</trkpt>

		<trkpt lat="43.020022" lon="-5.967380">
			<ele>1868.000000</ele>
		<time>2015-11-29T02:21:11Z</time>
		</trkpt>

		<trkpt lat="43.020013" lon="-5.967425">
			<ele>1866.000000</ele>
		<time>2015-11-29T02:21:45Z</time>
		</trkpt>

		<trkpt lat="43.019913" lon="-5.967778">
			<ele>1865.000000</ele>
		<time>2015-11-29T02:21:48Z</time>
		</trkpt>

		<trkpt lat="43.019810" lon="-5.968117">
			<ele>1866.000000</ele>
		<time>2015-11-29T02:21:51Z</time>
		</trkpt>

		<trkpt lat="43.019771" lon="-5.968453">
			<ele>1866.000000</ele>
		<time>2015-11-29T02:21:54Z</time>
		</trkpt>

		<trkpt lat="43.019718" lon="-5.968774">
			<ele>1862.000000</ele>
		<time>2015-11-29T02:21:57Z</time>
		</trkpt>

		<trkpt lat="43.019663" lon="-5.969123">
			<ele>1855.000000</ele>
		<time>2015-11-29T02:22:01Z</time>
		</trkpt>

		<trkpt lat="43.019608" lon="-5.969413">
			<ele>1852.000000</ele>
		<time>2015-11-29T02:22:04Z</time>
		</trkpt>

		<trkpt lat="43.019602" lon="-5.969727">
			<ele>1851.000000</ele>
		<time>2015-11-29T02:22:07Z</time>
		</trkpt>

		<trkpt lat="43.019596" lon="-5.970027">
			<ele>1848.000000</ele>
		<time>2015-11-29T02:22:10Z</time>
		</trkpt>

		<trkpt lat="43.019607" lon="-5.970294">
			<ele>1846.000000</ele>
		<time>2015-11-29T02:22:13Z</time>
		</trkpt>

		<trkpt lat="43.019584" lon="-5.970703">
			<ele>1842.000000</ele>
		<time>2015-11-29T02:22:17Z</time>
		</trkpt>

		<trkpt lat="43.019525" lon="-5.970999">
			<ele>1838.000000</ele>
		<time>2015-11-29T02:22:20Z</time>
		</trkpt>

		<trkpt lat="43.019423" lon="-5.971272">
			<ele>1836.000000</ele>
		<time>2015-11-29T02:22:23Z</time>
		</trkpt>

		<trkpt lat="43.019389" lon="-5.971597">
			<ele>1834.000000</ele>
		<time>2015-11-29T02:22:26Z</time>
		</trkpt>

		<trkpt lat="43.019470" lon="-5.971883">
			<ele>1831.000000</ele>
		<time>2015-11-29T02:22:29Z</time>
		</trkpt>

		<trkpt lat="43.019589" lon="-5.972168">
			<ele>1825.000000</ele>
		<time>2015-11-29T02:22:32Z</time>
		</trkpt>

		<trkpt lat="43.019773" lon="-5.972415">
			<ele>1821.000000</ele>
		<time>2015-11-29T02:22:35Z</time>
		</trkpt>

		<trkpt lat="43.019904" lon="-5.972690">
			<ele>1815.000000</ele>
		<time>2015-11-29T02:22:38Z</time>
		</trkpt>

		<trkpt lat="43.019953" lon="-5.973011">
			<ele>1809.000000</ele>
		<time>2015-11-29T02:22:41Z</time>
		</trkpt>

		<trkpt lat="43.019858" lon="-5.973306">
			<ele>1805.000000</ele>
		<time>2015-11-29T02:22:44Z</time>
		</trkpt>

		<trkpt lat="43.019767" lon="-5.973607">
			<ele>1801.000000</ele>
		<time>2015-11-29T02:22:47Z</time>
		</trkpt>

		<trkpt lat="43.019637" lon="-5.973862">
			<ele>1795.000000</ele>
		<time>2015-11-29T02:22:50Z</time>
		</trkpt>

		<trkpt lat="43.019450" lon="-5.974079">
			<ele>1795.000000</ele>
		<time>2015-11-29T02:22:53Z</time>
		</trkpt>

		<trkpt lat="43.019283" lon="-5.974311">
			<ele>1793.000000</ele>
		<time>2015-11-29T02:22:56Z</time>
		</trkpt>

		<trkpt lat="43.019143" lon="-5.974531">
			<ele>1787.000000</ele>
		<time>2015-11-29T02:22:59Z</time>
		</trkpt>

		<trkpt lat="43.018960" lon="-5.974743">
			<ele>1785.000000</ele>
		<time>2015-11-29T02:23:02Z</time>
		</trkpt>

		<trkpt lat="43.018751" lon="-5.974894">
			<ele>1782.000000</ele>
		<time>2015-11-29T02:23:05Z</time>
		</trkpt>

		<trkpt lat="43.018533" lon="-5.975039">
			<ele>1780.000000</ele>
		<time>2015-11-29T02:23:08Z</time>
		</trkpt>

		<trkpt lat="43.018326" lon="-5.975140">
			<ele>1777.000000</ele>
		<time>2015-11-29T02:23:11Z</time>
		</trkpt>

		<trkpt lat="43.018143" lon="-5.975260">
			<ele>1770.000000</ele>
		<time>2015-11-29T02:23:14Z</time>
		</trkpt>

		<trkpt lat="43.017965" lon="-5.975423">
			<ele>1766.000000</ele>
		<time>2015-11-29T02:23:17Z</time>
		</trkpt>

		<trkpt lat="43.017795" lon="-5.975599">
			<ele>1760.000000</ele>
		<time>2015-11-29T02:23:20Z</time>
		</trkpt>

		<trkpt lat="43.017630" lon="-5.975748">
			<ele>1756.000000</ele>
		<time>2015-11-29T02:23:23Z</time>
		</trkpt>

		<trkpt lat="43.017476" lon="-5.975905">
			<ele>1751.000000</ele>
		<time>2015-11-29T02:23:26Z</time>
		</trkpt>

		<trkpt lat="43.017300" lon="-5.976093">
			<ele>1746.000000</ele>
		<time>2015-11-29T02:23:29Z</time>
		</trkpt>

		<trkpt lat="43.017126" lon="-5.976279">
			<ele>1743.000000</ele>
		<time>2015-11-29T02:23:32Z</time>
		</trkpt>

		<trkpt lat="43.017017" lon="-5.976570">
			<ele>1728.000000</ele>
		<time>2015-11-29T02:23:35Z</time>
		</trkpt>

		<trkpt lat="43.016883" lon="-5.976791">
			<ele>1720.000000</ele>
		<time>2015-11-29T02:23:38Z</time>
		</trkpt>

		<trkpt lat="43.014826" lon="-5.978915">
			<ele>1659.000000</ele>
		<time>2015-11-29T02:24:11Z</time>
		</trkpt>

		<trkpt lat="43.014605" lon="-5.979213">
			<ele>1666.000000</ele>
		<time>2015-11-29T02:24:14Z</time>
		</trkpt>

		<trkpt lat="43.014329" lon="-5.979391">
			<ele>1664.000000</ele>
		<time>2015-11-29T02:24:17Z</time>
		</trkpt>

		<trkpt lat="43.014158" lon="-5.979661">
			<ele>1658.000000</ele>
		<time>2015-11-29T02:24:20Z</time>
		</trkpt>

		<trkpt lat="43.013991" lon="-5.979905">
			<ele>1654.000000</ele>
		<time>2015-11-29T02:24:23Z</time>
		</trkpt>

		<trkpt lat="43.013841" lon="-5.980177">
			<ele>1650.000000</ele>
		<time>2015-11-29T02:24:26Z</time>
		</trkpt>

		<trkpt lat="43.013651" lon="-5.980426">
			<ele>1649.000000</ele>
		<time>2015-11-29T02:24:29Z</time>
		</trkpt>

		<trkpt lat="43.013497" lon="-5.980658">
			<ele>1641.000000</ele>
		<time>2015-11-29T02:24:32Z</time>
		</trkpt>

		<trkpt lat="43.013326" lon="-5.980934">
			<ele>1638.000000</ele>
		<time>2015-11-29T02:24:35Z</time>
		</trkpt>

		<trkpt lat="43.013196" lon="-5.981267">
			<ele>1636.000000</ele>
		<time>2015-11-29T02:24:38Z</time>
		</trkpt>

		<trkpt lat="43.013052" lon="-5.981620">
			<ele>1633.000000</ele>
		<time>2015-11-29T02:24:41Z</time>
		</trkpt>

		<trkpt lat="43.012916" lon="-5.981932">
			<ele>1628.000000</ele>
		<time>2015-11-29T02:24:44Z</time>
		</trkpt>

		<trkpt lat="43.012772" lon="-5.982289">
			<ele>1624.000000</ele>
		<time>2015-11-29T02:24:47Z</time>
		</trkpt>

		<trkpt lat="43.012644" lon="-5.982534">
			<ele>1618.000000</ele>
		<time>2015-11-29T02:24:50Z</time>
		</trkpt>

		<trkpt lat="43.012418" lon="-5.982858">
			<ele>1621.000000</ele>
		<time>2015-11-29T02:24:53Z</time>
		</trkpt>

		<trkpt lat="43.012240" lon="-5.983192">
			<ele>1620.000000</ele>
		<time>2015-11-29T02:24:56Z</time>
		</trkpt>

		<trkpt lat="43.012111" lon="-5.983507">
			<ele>1618.000000</ele>
		<time>2015-11-29T02:24:59Z</time>
		</trkpt>

		<trkpt lat="43.011940" lon="-5.983767">
			<ele>1614.000000</ele>
		<time>2015-11-29T02:25:02Z</time>
		</trkpt>

		<trkpt lat="43.011690" lon="-5.984059">
			<ele>1609.000000</ele>
		<time>2015-11-29T02:25:06Z</time>
		</trkpt>

		<trkpt lat="43.011479" lon="-5.984253">
			<ele>1606.000000</ele>
		<time>2015-11-29T02:25:09Z</time>
		</trkpt>

		<trkpt lat="43.011327" lon="-5.984440">
			<ele>1603.000000</ele>
		<time>2015-11-29T02:25:12Z</time>
		</trkpt>

		<trkpt lat="43.011137" lon="-5.984652">
			<ele>1601.000000</ele>
		<time>2015-11-29T02:25:15Z</time>
		</trkpt>

		<trkpt lat="43.010906" lon="-5.984927">
			<ele>1597.000000</ele>
		<time>2015-11-29T02:25:18Z</time>
		</trkpt>

		<trkpt lat="43.010763" lon="-5.985112">
			<ele>1593.000000</ele>
		<time>2015-11-29T02:25:21Z</time>
		</trkpt>

		<trkpt lat="43.010609" lon="-5.985352">
			<ele>1589.000000</ele>
		<time>2015-11-29T02:25:24Z</time>
		</trkpt>

		<trkpt lat="43.010505" lon="-5.985728">
			<ele>1585.000000</ele>
		<time>2015-11-29T02:25:27Z</time>
		</trkpt>

		<trkpt lat="43.010399" lon="-5.986076">
			<ele>1577.000000</ele>
		<time>2015-11-29T02:25:30Z</time>
		</trkpt>

		<trkpt lat="43.010286" lon="-5.986364">
			<ele>1573.000000</ele>
		<time>2015-11-29T02:25:33Z</time>
		</trkpt>

		<trkpt lat="43.010143" lon="-5.986757">
			<ele>1561.000000</ele>
		<time>2015-11-29T02:25:37Z</time>
		</trkpt>

		<trkpt lat="43.009999" lon="-5.987021">
			<ele>1557.000000</ele>
		<time>2015-11-29T02:25:40Z</time>
		</trkpt>

		<trkpt lat="43.009793" lon="-5.987359">
			<ele>1554.000000</ele>
		<time>2015-11-29T02:25:44Z</time>
		</trkpt>

		<trkpt lat="43.009672" lon="-5.987613">
			<ele>1547.000000</ele>
		<time>2015-11-29T02:25:47Z</time>
		</trkpt>

		<trkpt lat="43.009488" lon="-5.987899">
			<ele>1542.000000</ele>
		<time>2015-11-29T02:25:51Z</time>
		</trkpt>

		<trkpt lat="43.009308" lon="-5.988082">
			<ele>1539.000000</ele>
		<time>2015-11-29T02:25:54Z</time>
		</trkpt>

		<trkpt lat="43.009131" lon="-5.988250">
			<ele>1535.000000</ele>
		<time>2015-11-29T02:25:57Z</time>
		</trkpt>

		<trkpt lat="43.008917" lon="-5.988364">
			<ele>1533.000000</ele>
		<time>2015-11-29T02:26:00Z</time>
		</trkpt>

		<trkpt lat="43.008718" lon="-5.988544">
			<ele>1520.000000</ele>
		<time>2015-11-29T02:26:04Z</time>
		</trkpt>

		<trkpt lat="43.008532" lon="-5.988727">
			<ele>1517.000000</ele>
		<time>2015-11-29T02:26:07Z</time>
		</trkpt>

		<trkpt lat="43.008377" lon="-5.988983">
			<ele>1515.000000</ele>
		<time>2015-11-29T02:26:10Z</time>
		</trkpt>

		<trkpt lat="43.008262" lon="-5.989335">
			<ele>1509.000000</ele>
		<time>2015-11-29T02:26:13Z</time>
		</trkpt>

		<trkpt lat="43.008187" lon="-5.989681">
			<ele>1505.000000</ele>
		<time>2015-11-29T02:26:16Z</time>
		</trkpt>

		<trkpt lat="43.008135" lon="-5.989955">
			<ele>1498.000000</ele>
		<time>2015-11-29T02:26:19Z</time>
		</trkpt>

		<trkpt lat="43.007966" lon="-5.990195">
			<ele>1494.000000</ele>
		<time>2015-11-29T02:26:22Z</time>
		</trkpt>

		<trkpt lat="43.007779" lon="-5.990334">
			<ele>1488.000000</ele>
		<time>2015-11-29T02:26:25Z</time>
		</trkpt>

		<trkpt lat="43.007572" lon="-5.990367">
			<ele>1485.000000</ele>
		<time>2015-11-29T02:26:28Z</time>
		</trkpt>

		<trkpt lat="43.007372" lon="-5.990350">
			<ele>1483.000000</ele>
		<time>2015-11-29T02:26:31Z</time>
		</trkpt>

		<trkpt lat="43.007177" lon="-5.990469">
			<ele>1482.000000</ele>
		<time>2015-11-29T02:26:34Z</time>
		</trkpt>

		<trkpt lat="43.007005" lon="-5.990602">
			<ele>1480.000000</ele>
		<time>2015-11-29T02:26:37Z</time>
		</trkpt>

		<trkpt lat="43.006868" lon="-5.990792">
			<ele>1480.000000</ele>
		<time>2015-11-29T02:26:40Z</time>
		</trkpt>

		<trkpt lat="43.006766" lon="-5.991041">
			<ele>1479.000000</ele>
		<time>2015-11-29T02:26:43Z</time>
		</trkpt>

		<trkpt lat="43.006738" lon="-5.991337">
			<ele>1478.000000</ele>
		<time>2015-11-29T02:26:46Z</time>
		</trkpt>

		<trkpt lat="43.006691" lon="-5.991550">
			<ele>1472.000000</ele>
		<time>2015-11-29T02:26:49Z</time>
		</trkpt>

		<trkpt lat="43.006634" lon="-5.991803">
			<ele>1467.000000</ele>
		<time>2015-11-29T02:26:52Z</time>
		</trkpt>

		<trkpt lat="43.006584" lon="-5.992088">
			<ele>1466.000000</ele>
		<time>2015-11-29T02:26:55Z</time>
		</trkpt>

		<trkpt lat="43.006528" lon="-5.992419">
			<ele>1464.000000</ele>
		<time>2015-11-29T02:26:58Z</time>
		</trkpt>

		<trkpt lat="43.006513" lon="-5.992715">
			<ele>1456.000000</ele>
		<time>2015-11-29T02:27:01Z</time>
		</trkpt>

		<trkpt lat="43.006493" lon="-5.992995">
			<ele>1446.000000</ele>
		<time>2015-11-29T02:27:04Z</time>
		</trkpt>

		<trkpt lat="43.006468" lon="-5.993249">
			<ele>1441.000000</ele>
		<time>2015-11-29T02:27:07Z</time>
		</trkpt>

		<trkpt lat="43.006445" lon="-5.993605">
			<ele>1440.000000</ele>
		<time>2015-11-29T02:27:10Z</time>
		</trkpt>

		<trkpt lat="43.006447" lon="-5.993851">
			<ele>1431.000000</ele>
		<time>2015-11-29T02:27:13Z</time>
		</trkpt>

		<trkpt lat="43.006407" lon="-5.994156">
			<ele>1427.000000</ele>
		<time>2015-11-29T02:27:16Z</time>
		</trkpt>

		<trkpt lat="43.006386" lon="-5.994457">
			<ele>1423.000000</ele>
		<time>2015-11-29T02:27:19Z</time>
		</trkpt>

		<trkpt lat="43.006379" lon="-5.994763">
			<ele>1418.000000</ele>
		<time>2015-11-29T02:27:22Z</time>
		</trkpt>

		<trkpt lat="43.006505" lon="-5.995080">
			<ele>1409.000000</ele>
		<time>2015-11-29T02:27:25Z</time>
		</trkpt>

		<trkpt lat="43.006684" lon="-5.995306">
			<ele>1400.000000</ele>
		<time>2015-11-29T02:27:28Z</time>
		</trkpt>

		<trkpt lat="43.006829" lon="-5.995589">
			<ele>1399.000000</ele>
		<time>2015-11-29T02:27:31Z</time>
		</trkpt>

		<trkpt lat="43.006884" lon="-5.995888">
			<ele>1397.000000</ele>
		<time>2015-11-29T02:27:34Z</time>
		</trkpt>

		<trkpt lat="43.006881" lon="-5.996176">
			<ele>1393.000000</ele>
		<time>2015-11-29T02:27:37Z</time>
		</trkpt>

		<trkpt lat="43.006843" lon="-5.996439">
			<ele>1388.000000</ele>
		<time>2015-11-29T02:27:40Z</time>
		</trkpt>

		<trkpt lat="43.006759" lon="-5.996666">
			<ele>1381.000000</ele>
		<time>2015-11-29T02:27:43Z</time>
		</trkpt>

		<trkpt lat="43.006625" lon="-5.996780">
			<ele>1376.000000</ele>
		<time>2015-11-29T02:27:46Z</time>
		</trkpt>

		<trkpt lat="43.006514" lon="-5.996636">
			<ele>1367.000000</ele>
		<time>2015-11-29T02:27:49Z</time>
		</trkpt>

		<trkpt lat="43.006570" lon="-5.996265">
			<ele>1365.000000</ele>
		<time>2015-11-29T02:27:52Z</time>
		</trkpt>

		<trkpt lat="43.006636" lon="-5.995938">
			<ele>1360.000000</ele>
		<time>2015-11-29T02:27:55Z</time>
		</trkpt>

		<trkpt lat="43.006480" lon="-5.995756">
			<ele>1356.000000</ele>
		<time>2015-11-29T02:27:58Z</time>
		</trkpt>

		<trkpt lat="43.006358" lon="-5.995999">
			<ele>1350.000000</ele>
		<time>2015-11-29T02:28:01Z</time>
		</trkpt>

		<trkpt lat="43.006275" lon="-5.996257">
			<ele>1350.000000</ele>
		<time>2015-11-29T02:28:04Z</time>
		</trkpt>

		<trkpt lat="43.006172" lon="-5.996520">
			<ele>1349.000000</ele>
		<time>2015-11-29T02:28:07Z</time>
		</trkpt>

		<trkpt lat="43.005988" lon="-5.996564">
			<ele>1343.000000</ele>
		<time>2015-11-29T02:28:10Z</time>
		</trkpt>

		<trkpt lat="43.005883" lon="-5.996497">
			<ele>1330.000000</ele>
		<time>2015-11-29T02:28:13Z</time>
		</trkpt>

		<trkpt lat="43.005826" lon="-5.996234">
			<ele>1325.000000</ele>
		<time>2015-11-29T02:28:16Z</time>
		</trkpt>

		<trkpt lat="43.005773" lon="-5.995969">
			<ele>1321.000000</ele>
		<time>2015-11-29T02:28:19Z</time>
		</trkpt>

		<trkpt lat="43.005605" lon="-5.995948">
			<ele>1316.000000</ele>
		<time>2015-11-29T02:28:22Z</time>
		</trkpt>

		<trkpt lat="43.005528" lon="-5.996130">
			<ele>1316.000000</ele>
		<time>2015-11-29T02:28:25Z</time>
		</trkpt>

		<trkpt lat="43.005456" lon="-5.996409">
			<ele>1315.000000</ele>
		<time>2015-11-29T02:28:28Z</time>
		</trkpt>

		<trkpt lat="43.005293" lon="-5.996579">
			<ele>1316.000000</ele>
		<time>2015-11-29T02:28:31Z</time>
		</trkpt>

		<trkpt lat="43.005165" lon="-5.996676">
			<ele>1315.000000</ele>
		<time>2015-11-29T02:28:34Z</time>
		</trkpt>

		<trkpt lat="43.005030" lon="-5.996778">
			<ele>1313.000000</ele>
		<time>2015-11-29T02:28:37Z</time>
		</trkpt>

		<trkpt lat="43.004930" lon="-5.996456">
			<ele>1307.000000</ele>
		<time>2015-11-29T02:28:41Z</time>
		</trkpt>

		<trkpt lat="43.004879" lon="-5.996202">
			<ele>1307.000000</ele>
		<time>2015-11-29T02:28:44Z</time>
		</trkpt>

		<trkpt lat="43.004701" lon="-5.996299">
			<ele>1304.000000</ele>
		<time>2015-11-29T02:28:47Z</time>
		</trkpt>

		<trkpt lat="43.004499" lon="-5.996310">
			<ele>1300.000000</ele>
		<time>2015-11-29T02:28:50Z</time>
		</trkpt>

		<trkpt lat="43.004353" lon="-5.996322">
			<ele>1295.000000</ele>
		<time>2015-11-29T02:28:54Z</time>
		</trkpt>

		<trkpt lat="43.004357" lon="-5.996277">
			<ele>1291.000000</ele>
		<time>2015-11-29T02:29:00Z</time>
		</trkpt>

		<trkpt lat="43.004380" lon="-5.996296">
			<ele>1284.000000</ele>
		<time>2015-11-29T02:33:52Z</time>
		</trkpt>

		<trkpt lat="43.004389" lon="-5.996332">
			<ele>1280.000000</ele>
		<time>2015-11-29T02:34:41Z</time>
		</trkpt>

		<trkpt lat="43.004365" lon="-5.996350">
			<ele>1285.000000</ele>
		<time>2015-11-29T02:35:08Z</time>
		</trkpt>

		<trkpt lat="43.004362" lon="-5.996387">
			<ele>1285.000000</ele>
		<time>2015-11-29T02:35:21Z</time>
		</trkpt>

		<trkpt lat="43.004371" lon="-5.996349">
			<ele>1280.000000</ele>
		<time>2015-11-29T02:35:59Z</time>
		</trkpt>

		<trkpt lat="43.004351" lon="-5.996317">
			<ele>1285.000000</ele>
		<time>2015-11-29T02:36:12Z</time>
		</trkpt>

		<trkpt lat="43.004366" lon="-5.996264">
			<ele>1284.000000</ele>
		<time>2015-11-29T02:36:46Z</time>
		</trkpt>

		<trkpt lat="43.004382" lon="-5.996223">
			<ele>1284.000000</ele>
		<time>2015-11-29T02:36:49Z</time>
		</trkpt>

		<trkpt lat="43.004398" lon="-5.996191">
			<ele>1285.000000</ele>
		<time>2015-11-29T02:36:52Z</time>
		</trkpt>

		<trkpt lat="43.004412" lon="-5.996152">
			<ele>1283.000000</ele>
		<time>2015-11-29T02:36:56Z</time>
		</trkpt>

		<trkpt lat="43.004387" lon="-5.996168">
			<ele>1284.000000</ele>
		<time>2015-11-29T02:37:27Z</time>
		</trkpt>

		<trkpt lat="43.004355" lon="-5.996174">
			<ele>1285.000000</ele>
		<time>2015-11-29T02:38:50Z</time>
		</trkpt>

		<trkpt lat="43.004353" lon="-5.996216">
			<ele>1287.000000</ele>
		<time>2015-11-29T02:39:08Z</time>
		</trkpt>

		<trkpt lat="43.004346" lon="-5.996255">
			<ele>1289.000000</ele>
		<time>2015-11-29T02:39:11Z</time>
		</trkpt>

		<trkpt lat="43.004326" lon="-5.996290">
			<ele>1291.000000</ele>
		<time>2015-11-29T02:39:14Z</time>
		</trkpt>

		<trkpt lat="43.004316" lon="-5.996327">
			<ele>1289.000000</ele>
		<time>2015-11-29T02:39:17Z</time>
		</trkpt>

		<trkpt lat="43.004345" lon="-5.996329">
			<ele>1289.000000</ele>
		<time>2015-11-29T02:39:24Z</time>
		</trkpt>

		<trkpt lat="43.004374" lon="-5.996337">
			<ele>1286.000000</ele>
		<time>2015-11-29T02:40:01Z</time>
		</trkpt>

		<trkpt lat="43.004390" lon="-5.996374">
			<ele>1286.000000</ele>
		<time>2015-11-29T02:40:11Z</time>
		</trkpt>

		<trkpt lat="43.004419" lon="-5.996371">
			<ele>1286.000000</ele>
		<time>2015-11-29T02:40:15Z</time>
		</trkpt>

		<trkpt lat="43.004420" lon="-5.996332">
			<ele>1289.000000</ele>
		<time>2015-11-29T02:40:18Z</time>
		</trkpt>

		<trkpt lat="43.004396" lon="-5.996315">
			<ele>1291.000000</ele>
		<time>2015-11-29T02:40:22Z</time>
		</trkpt>

		<trkpt lat="43.004409" lon="-5.996281">
			<ele>1293.000000</ele>
		<time>2015-11-29T02:40:42Z</time>
		</trkpt>

		<trkpt lat="43.004387" lon="-5.996315">
			<ele>1293.000000</ele>
		<time>2015-11-29T02:40:52Z</time>
		</trkpt>

		<trkpt lat="43.004356" lon="-5.996298">
			<ele>1293.000000</ele>
		<time>2015-11-29T02:40:55Z</time>
		</trkpt>

		<trkpt lat="43.004378" lon="-5.996275">
			<ele>1289.000000</ele>
		<time>2015-11-29T02:41:20Z</time>
		</trkpt>

		<trkpt lat="43.004403" lon="-5.996288">
			<ele>1284.000000</ele>
		<time>2015-11-29T02:41:26Z</time>
		</trkpt>

		<trkpt lat="43.004429" lon="-5.996300">
			<ele>1279.000000</ele>
		<time>2015-11-29T02:41:39Z</time>
		</trkpt>

		<trkpt lat="43.004427" lon="-5.996260">
			<ele>1284.000000</ele>
		<time>2015-11-29T02:41:45Z</time>
		</trkpt>

		<trkpt lat="43.004441" lon="-5.996312">
			<ele>1281.000000</ele>
		<time>2015-11-29T02:42:45Z</time>
		</trkpt>

		<trkpt lat="43.004415" lon="-5.996284">
			<ele>1286.000000</ele>
		<time>2015-11-29T02:44:58Z</time>
		</trkpt>

		<trkpt lat="43.004395" lon="-5.996309">
			<ele>1285.000000</ele>
		<time>2015-11-29T02:45:08Z</time>
		</trkpt>

		<trkpt lat="43.004380" lon="-5.996340">
			<ele>1286.000000</ele>
		<time>2015-11-29T02:45:50Z</time>
		</trkpt>

		<trkpt lat="43.004395" lon="-5.996307">
			<ele>1286.000000</ele>
		<time>2015-11-29T02:45:57Z</time>
		</trkpt>

		<trkpt lat="43.004419" lon="-5.996290">
			<ele>1288.000000</ele>
		<time>2015-11-29T02:47:05Z</time>
		</trkpt>

		<trkpt lat="43.004410" lon="-5.996325">
			<ele>1289.000000</ele>
		<time>2015-11-29T02:47:44Z</time>
		</trkpt>

		<trkpt lat="43.004389" lon="-5.996297">
			<ele>1290.000000</ele>
		<time>2015-11-29T02:48:21Z</time>
		</trkpt>

		<trkpt lat="43.004374" lon="-5.996266">
			<ele>1286.000000</ele>
		<time>2015-11-29T02:49:35Z</time>
		</trkpt>

		<trkpt lat="43.004345" lon="-5.996274">
			<ele>1291.000000</ele>
		<time>2015-11-29T02:53:06Z</time>
		</trkpt>

		<trkpt lat="43.004316" lon="-5.996295">
			<ele>1293.000000</ele>
		<time>2015-11-29T02:53:12Z</time>
		</trkpt>

		<trkpt lat="43.004306" lon="-5.996330">
			<ele>1293.000000</ele>
		<time>2015-11-29T02:53:23Z</time>
		</trkpt>

		<trkpt lat="43.004341" lon="-5.996312">
			<ele>1295.000000</ele>
		<time>2015-11-29T02:53:48Z</time>
		</trkpt>

		<trkpt lat="43.004367" lon="-5.996297">
			<ele>1292.000000</ele>
		<time>2015-11-29T02:55:17Z</time>
		</trkpt>

		<trkpt lat="43.004383" lon="-5.996333">
			<ele>1291.000000</ele>
		<time>2015-11-29T02:55:53Z</time>
		</trkpt>

	</trkseg>
</trk>
</gpx>

